createdAt,value
2019-01-24T00:00:42.299Z,26.9
2019-01-24T00:01:32.077Z,26.9
2019-01-24T00:02:22.459Z,26.8
2019-01-24T00:03:12.203Z,26.8
2019-01-24T00:04:01.981Z,26.8
2019-01-24T00:04:52.594Z,26.8
2019-01-24T00:05:42.377Z,26.8
2019-01-24T00:06:32.701Z,26.8
2019-01-24T00:07:22.220Z,26.8
2019-01-24T00:08:12.541Z,26.8
2019-01-24T00:09:02.364Z,26.8
2019-01-24T00:09:52.957Z,26.8
2019-01-24T00:10:42.999Z,26.8
2019-01-24T00:11:32.776Z,26.8
2019-01-24T00:12:23.109Z,26.8
2019-01-24T00:13:12.911Z,26.8
2019-01-24T00:14:02.951Z,26.8
2019-01-24T00:14:53.013Z,26.8
2019-01-24T00:15:43.069Z,26.8
2019-01-24T00:16:32.596Z,26.8
2019-01-24T00:17:23.187Z,26.8
2019-01-24T00:18:13.329Z,26.8
2019-01-24T00:19:03.301Z,26.7
2019-01-24T00:19:53.650Z,26.7
2019-01-24T00:20:42.880Z,26.7
2019-01-24T00:21:33.471Z,26.7
2019-01-24T00:22:23.534Z,26.7
2019-01-24T00:23:13.656Z,26.7
2019-01-24T00:24:03.620Z,26.6
2019-01-24T00:24:53.414Z,26.7
2019-01-24T00:25:43.788Z,26.6
2019-01-24T00:26:32.690Z,26.6
2019-01-24T00:27:23.623Z,26.6
2019-01-24T00:28:14.222Z,26.6
2019-01-24T00:29:04.262Z,26.6
2019-01-24T00:29:54.031Z,26.6
2019-01-24T00:30:43.830Z,26.6
2019-01-24T00:31:34.428Z,26.6
2019-01-24T00:32:24.223Z,26.6
2019-01-24T00:33:14.268Z,26.6
2019-01-24T00:34:04.688Z,26.6
2019-01-24T00:34:53.542Z,26.6
2019-01-24T00:35:44.475Z,26.6
2019-01-24T00:36:34.538Z,26.6
2019-01-24T00:37:24.285Z,26.6
2019-01-24T00:38:14.357Z,26.6
2019-01-24T00:39:04.997Z,26.6
2019-01-24T00:39:54.999Z,26.6
2019-01-24T00:40:44.497Z,26.5
2019-01-24T00:41:34.818Z,26.6
2019-01-24T00:42:25.231Z,26.5
2019-01-24T00:43:16.080Z,26.5
2019-01-24T00:44:05.031Z,26.5
2019-01-24T00:44:55.353Z,26.5
2019-01-24T00:45:45.159Z,26.5
2019-01-24T00:46:35.177Z,26.5
2019-01-24T00:47:25.024Z,26.5
2019-01-24T00:48:15.089Z,26.5
2019-01-24T00:49:04.606Z,26.5
2019-01-24T00:49:55.394Z,26.5
2019-01-24T00:50:45.001Z,26.4
2019-01-24T00:51:35.351Z,26.4
2019-01-24T00:52:24.818Z,26.4
2019-01-24T00:53:15.439Z,26.4
2019-01-24T00:54:04.976Z,26.4
2019-01-24T00:54:55.536Z,26.4
2019-01-24T00:55:45.399Z,26.4
2019-01-24T00:56:34.841Z,26.4
2019-01-24T00:57:25.176Z,26.4
2019-01-24T00:58:15.513Z,26.4
2019-01-24T00:59:05.325Z,26.4
2019-01-24T00:59:55.926Z,26.4
2019-01-24T01:00:45.680Z,26.4
2019-01-24T01:01:35.998Z,26.4
2019-01-24T01:02:25.790Z,26.4
2019-01-24T01:03:15.843Z,26.4
2019-01-24T01:04:06.181Z,26.4
2019-01-24T01:04:55.960Z,26.4
2019-01-24T01:05:46.023Z,26.4
2019-01-24T01:06:36.341Z,26.4
2019-01-24T01:07:25.865Z,26.4
2019-01-24T01:08:16.980Z,26.3
2019-01-24T01:09:07.023Z,26.3
2019-01-24T01:09:56.365Z,26.3
2019-01-24T01:10:46.847Z,26.3
2019-01-24T01:11:36.701Z,26.3
2019-01-24T01:12:26.984Z,26.3
2019-01-24T01:13:16.735Z,26.3
2019-01-24T01:14:07.081Z,26.3
2019-01-24T01:14:56.704Z,26.3
2019-01-24T01:15:46.735Z,26.3
2019-01-24T01:16:37.085Z,26.3
2019-01-24T01:17:27.310Z,26.3
2019-01-24T01:18:17.392Z,26.3
2019-01-24T01:19:07.465Z,26.3
2019-01-24T01:19:57.751Z,26.3
2019-01-24T01:20:47.533Z,26.3
2019-01-24T01:21:37.595Z,26.3
2019-01-24T01:22:27.361Z,26.3
2019-01-24T01:23:16.892Z,26.3
2019-01-24T01:24:08.046Z,26.2
2019-01-24T01:24:57.864Z,26.2
2019-01-24T01:25:48.152Z,26.2
2019-01-24T01:26:37.704Z,26.2
2019-01-24T01:27:28.273Z,26.2
2019-01-24T01:28:17.016Z,26.2
2019-01-24T01:29:08.101Z,26.2
2019-01-24T01:29:58.439Z,26.2
2019-01-24T01:30:48.209Z,26.2
2019-01-24T01:31:38.261Z,26.2
2019-01-24T01:32:28.336Z,26.2
2019-01-24T01:33:18.664Z,26.2
2019-01-24T01:34:07.894Z,26.2
2019-01-24T01:34:58.508Z,26.2
2019-01-24T01:35:48.572Z,26.1
2019-01-24T01:36:38.635Z,26.1
2019-01-24T01:37:28.678Z,26.1
2019-01-24T01:38:20.109Z,26.1
2019-01-24T01:39:08.781Z,26.1
2019-01-24T01:39:58.566Z,26.1
2019-01-24T01:40:49.216Z,26.1
2019-01-24T01:41:38.468Z,26.1
2019-01-24T01:42:28.733Z,26.1
2019-01-24T01:43:19.089Z,26.1
2019-01-24T01:44:09.128Z,26.1
2019-01-24T01:44:58.653Z,26.1
2019-01-24T01:45:49.555Z,26.1
2019-01-24T01:46:39.303Z,26.1
2019-01-24T01:47:28.813Z,26.1
2019-01-24T01:48:19.706Z,26.1
2019-01-24T01:49:09.212Z,26.1
2019-01-24T01:49:59.809Z,26.1
2019-01-24T01:50:49.650Z,26.1
2019-01-24T01:51:39.390Z,26.1
2019-01-24T01:52:29.985Z,26.1
2019-01-24T01:53:20.057Z,26.1
2019-01-24T01:54:09.280Z,26
2019-01-24T01:54:59.612Z,26
2019-01-24T01:55:49.983Z,26
2019-01-24T01:56:40.319Z,26
2019-01-24T01:57:30.042Z,26
2019-01-24T01:58:20.392Z,26
2019-01-24T01:59:09.879Z,26
2019-01-24T01:59:59.952Z,26
2019-01-24T02:00:50.554Z,26
2019-01-24T02:01:40.379Z,26
2019-01-24T02:02:30.679Z,26.1
2019-01-24T02:03:20.457Z,26.1
2019-01-24T02:04:10.529Z,26.1
2019-01-24T02:05:00.385Z,26.1
2019-01-24T02:05:50.637Z,26.1
2019-01-24T02:06:40.779Z,26.1
2019-01-24T02:07:30.754Z,26.1
2019-01-24T02:08:20.534Z,26.1
2019-01-24T02:09:10.591Z,26.1
2019-01-24T02:10:00.711Z,26.1
2019-01-24T02:10:50.989Z,26.2
2019-01-24T02:11:41.106Z,26.2
2019-01-24T02:12:31.361Z,26.2
2019-01-24T02:13:21.426Z,26.2
2019-01-24T02:14:10.963Z,26.3
2019-01-24T02:15:01.661Z,26.3
2019-01-24T02:15:51.591Z,26.3
2019-01-24T02:16:41.415Z,26.3
2019-01-24T02:17:31.436Z,26.3
2019-01-24T02:18:21.487Z,26.3
2019-01-24T02:19:11.614Z,26.3
2019-01-24T02:20:01.740Z,26.3
2019-01-24T02:20:51.390Z,26.2
2019-01-24T02:21:41.733Z,26.1
2019-01-24T02:22:32.058Z,26.1
2019-01-24T02:23:21.575Z,26.1
2019-01-24T02:24:11.655Z,26.1
2019-01-24T02:25:02.273Z,26
2019-01-24T02:25:52.001Z,25.9
2019-01-24T02:26:41.601Z,25.9
2019-01-24T02:27:32.345Z,25.9
2019-01-24T02:28:22.472Z,25.8
2019-01-24T02:29:11.960Z,25.8
2019-01-24T02:30:02.889Z,25.8
2019-01-24T02:30:52.648Z,25.8
2019-01-24T02:31:42.425Z,25.8
2019-01-24T02:32:32.536Z,25.8
2019-01-24T02:33:22.365Z,25.8
2019-01-24T02:34:12.325Z,25.8
2019-01-24T02:35:03.000Z,25.9
2019-01-24T02:35:52.485Z,25.9
2019-01-24T02:36:42.790Z,26
2019-01-24T02:37:32.847Z,26.1
2019-01-24T02:38:22.642Z,26.1
2019-01-24T02:39:13.270Z,26.3
2019-01-24T02:40:03.292Z,26.3
2019-01-24T02:40:52.542Z,26.4
2019-01-24T02:41:43.409Z,26.6
2019-01-24T02:42:32.628Z,26.6
2019-01-24T02:43:22.750Z,26.8
2019-01-24T02:44:13.302Z,26.9
2019-01-24T02:45:03.540Z,27.1
2019-01-24T02:45:53.736Z,27.2
2019-01-24T02:46:42.949Z,27.4
2019-01-24T02:47:33.516Z,27.5
2019-01-24T02:48:23.888Z,27.6
2019-01-24T02:50:03.916Z,28
2019-01-24T02:50:53.501Z,28.1
2019-01-24T02:51:43.543Z,28.3
2019-01-24T02:52:33.311Z,28.4
2019-01-24T02:53:23.643Z,28.6
2019-01-24T02:54:13.473Z,28.8
2019-01-24T02:55:04.176Z,29
2019-01-24T02:55:54.071Z,29.1
2019-01-24T02:56:43.866Z,29.3
2019-01-24T02:57:34.541Z,29.5
2019-01-24T02:58:24.549Z,29.6
2019-01-24T02:59:14.586Z,29.8
2019-01-24T03:00:04.754Z,30
2019-01-24T03:00:53.890Z,30.1
2019-01-24T03:01:44.493Z,30.3
2019-01-24T03:02:34.570Z,30.5
2019-01-24T03:03:24.932Z,30.6
2019-01-24T03:04:14.668Z,30.8
2019-01-24T03:05:04.728Z,30.9
2019-01-24T03:08:37.550Z,31.4
2019-01-24T03:09:27.554Z,31.6
2019-01-24T03:10:17.576Z,31.8
2019-01-24T03:11:07.432Z,31.9
2019-01-24T03:11:57.675Z,32
2019-01-24T03:12:48.010Z,32.1
2019-01-24T03:13:37.787Z,32.3
2019-01-24T03:14:28.196Z,32.4
2019-01-24T03:15:17.652Z,32.5
2019-01-24T03:16:07.701Z,32.6
2019-01-24T03:16:58.048Z,32.8
2019-01-24T03:17:48.379Z,32.9
2019-01-24T03:18:38.164Z,33
2019-01-24T03:19:28.278Z,33.1
2019-01-24T03:20:17.999Z,33.3
2019-01-24T03:21:08.617Z,33.4
2019-01-24T03:21:58.657Z,33.5
2019-01-24T03:22:48.417Z,33.6
2019-01-24T03:23:38.489Z,33.7
2019-01-24T03:24:28.829Z,33.8
2019-01-24T03:25:18.328Z,33.9
2019-01-24T03:26:08.665Z,34.1
2019-01-24T03:26:58.721Z,34.2
2019-01-24T03:27:49.082Z,34.3
2019-01-24T03:28:38.853Z,34.4
2019-01-24T03:29:28.599Z,34.5
2019-01-24T03:30:18.899Z,34.6
2019-01-24T03:31:08.803Z,34.6
2019-01-24T03:31:59.465Z,34.7
2019-01-24T03:32:49.360Z,34.8
2019-01-24T03:33:39.256Z,34.8
2019-01-24T03:34:29.555Z,34.9
2019-01-24T03:35:19.348Z,34.9
2019-01-24T03:36:09.621Z,34.9
2019-01-24T03:36:59.393Z,35
2019-01-24T03:37:48.641Z,35
2019-01-24T03:38:39.236Z,35.1
2019-01-24T03:39:29.600Z,35.1
2019-01-24T03:40:19.157Z,35.1
2019-01-24T03:41:09.743Z,35.1
2019-01-24T03:42:00.008Z,35.1
2019-01-24T03:42:50.089Z,35.1
2019-01-24T03:43:40.142Z,35.2
2019-01-24T03:44:29.942Z,35.2
2019-01-24T03:45:20.050Z,35.2
2019-01-24T03:46:10.302Z,35.2
2019-01-24T03:47:00.130Z,35.3
2019-01-24T03:47:50.185Z,35.3
2019-01-24T03:48:40.469Z,35.3
2019-01-24T03:49:29.694Z,35.3
2019-01-24T03:50:20.626Z,35.3
2019-01-24T03:51:10.431Z,35.3
2019-01-24T03:52:00.692Z,35.3
2019-01-24T03:52:50.802Z,35.3
2019-01-24T03:53:40.841Z,35.3
2019-01-24T03:54:30.952Z,35.3
2019-01-24T03:55:20.431Z,35.3
2019-01-24T03:56:10.697Z,35.3
2019-01-24T03:57:00.214Z,35.3
2019-01-24T03:57:50.924Z,35.3
2019-01-24T03:58:41.173Z,35.3
2019-01-24T03:59:30.986Z,35.3
2019-01-24T04:00:21.059Z,35.3
2019-01-24T04:01:11.403Z,35.3
2019-01-24T04:02:01.414Z,35.3
2019-01-24T04:02:50.915Z,35.3
2019-01-24T04:03:41.231Z,35.3
2019-01-24T04:04:30.756Z,35.3
2019-01-24T04:05:21.668Z,35.3
2019-01-24T04:06:11.400Z,35.3
2019-01-24T04:07:01.539Z,35.3
2019-01-24T04:07:51.331Z,35.3
2019-01-24T04:08:41.326Z,35.3
2019-01-24T04:09:31.652Z,35.3
2019-01-24T04:10:22.007Z,35.3
2019-01-24T04:11:11.181Z,35.3
2019-01-24T04:12:01.820Z,35.3
2019-01-24T04:12:52.146Z,35.3
2019-01-24T04:13:41.368Z,35.3
2019-01-24T04:14:31.965Z,35.3
2019-01-24T04:15:22.169Z,35.3
2019-01-24T04:16:12.428Z,35.3
2019-01-24T04:17:02.452Z,35.3
2019-01-24T04:17:52.245Z,35.3
2019-01-24T04:18:41.998Z,35.3
2019-01-24T04:19:32.423Z,35.3
2019-01-24T04:20:22.420Z,35.4
2019-01-24T04:21:12.433Z,35.3
2019-01-24T04:22:02.260Z,35.3
2019-01-24T04:22:52.585Z,35.3
2019-01-24T04:23:42.640Z,35.3
2019-01-24T04:24:32.660Z,35.3
2019-01-24T04:25:23.003Z,35.4
2019-01-24T04:26:12.232Z,35.3
2019-01-24T04:27:02.582Z,35.3
2019-01-24T04:27:52.685Z,35.3
2019-01-24T04:28:42.710Z,35.3
2019-01-24T04:29:32.765Z,35.4
2019-01-24T04:30:23.206Z,35.3
2019-01-24T04:31:13.107Z,35.4
2019-01-24T04:32:03.492Z,35.3
2019-01-24T04:32:53.286Z,35.3
2019-01-24T04:33:43.014Z,35.3
2019-01-24T04:34:33.632Z,35.3
2019-01-24T04:35:26.229Z,35.3
2019-01-24T04:36:15.354Z,35.3
2019-01-24T04:37:03.334Z,35.3
2019-01-24T04:37:53.357Z,35.3
2019-01-24T04:38:43.652Z,35.3
2019-01-24T04:39:33.701Z,35.3
2019-01-24T04:40:23.487Z,35.3
2019-01-24T04:41:13.557Z,35.3
2019-01-24T04:42:04.211Z,35.3
2019-01-24T04:42:53.678Z,35.3
2019-01-24T04:43:43.728Z,35.3
2019-01-24T04:44:33.771Z,35.4
2019-01-24T04:45:24.161Z,35.3
2019-01-24T04:46:13.884Z,35.3
2019-01-24T04:47:04.506Z,35.3
2019-01-24T04:47:53.596Z,35.3
2019-01-24T04:48:44.103Z,35.3
2019-01-24T04:49:33.384Z,35.3
2019-01-24T04:50:23.831Z,35.3
2019-01-24T04:51:14.049Z,35.3
2019-01-24T04:52:04.129Z,35.3
2019-01-24T04:52:53.903Z,35.3
2019-01-24T04:53:44.493Z,35.3
2019-01-24T04:54:34.260Z,35.3
2019-01-24T04:55:23.629Z,35.3
2019-01-24T04:56:14.473Z,35.3
2019-01-24T04:57:04.421Z,35.3
2019-01-24T04:57:56.266Z,35.3
2019-01-24T04:58:44.588Z,35.3
2019-01-24T04:59:34.466Z,35.3
2019-01-24T05:00:24.703Z,35.3
2019-01-24T05:01:13.985Z,35.3
2019-01-24T05:02:04.830Z,35.3
2019-01-24T05:02:54.887Z,35.3
2019-01-24T05:03:44.875Z,35.3
2019-01-24T05:04:34.400Z,35.3
2019-01-24T05:05:32.845Z,35.3
2019-01-24T05:06:15.497Z,35.3
2019-01-24T05:07:05.495Z,35.3
2019-01-24T05:07:55.234Z,35.3
2019-01-24T05:08:44.750Z,35.3
2019-01-24T05:09:35.124Z,35.3
2019-01-24T05:10:25.745Z,35.3
2019-01-24T05:11:15.144Z,35.3
2019-01-24T05:12:05.222Z,35.3
2019-01-24T05:12:56.065Z,35.3
2019-01-24T05:13:45.839Z,35.3
2019-01-24T05:14:36.109Z,35.3
2019-01-24T05:15:25.924Z,35.3
2019-01-24T05:16:16.257Z,35.3
2019-01-24T05:17:05.741Z,35.3
2019-01-24T05:17:56.416Z,35.3
2019-01-24T05:18:46.399Z,35.3
2019-01-24T05:19:36.187Z,35.3
2019-01-24T05:20:26.582Z,35.3
2019-01-24T05:21:16.573Z,35.3
2019-01-24T05:22:06.912Z,35.2
2019-01-24T05:22:56.739Z,35.3
2019-01-24T05:23:47.078Z,35.2
2019-01-24T05:24:37.068Z,35.3
2019-01-24T05:25:27.163Z,35.2
2019-01-24T05:26:16.969Z,35.2
2019-01-24T05:27:06.710Z,35.2
2019-01-24T05:27:57.132Z,35.2
2019-01-24T05:28:47.090Z,35.3
2019-01-24T05:29:36.876Z,35.2
2019-01-24T05:30:27.266Z,35.2
2019-01-24T05:31:17.274Z,35.2
2019-01-24T05:32:07.330Z,35.2
2019-01-24T05:32:58.715Z,35.2
2019-01-24T05:33:47.480Z,35.2
2019-01-24T05:34:37.789Z,35.2
2019-01-24T05:35:34.439Z,35.2
2019-01-24T05:36:17.897Z,35.2
2019-01-24T05:37:07.399Z,35.2
2019-01-24T05:37:58.035Z,35.2
2019-01-24T05:38:48.059Z,35.2
2019-01-24T05:39:38.109Z,35.1
2019-01-24T05:40:27.919Z,35.2
2019-01-24T05:41:18.261Z,35.2
2019-01-24T05:42:07.766Z,35.2
2019-01-24T05:42:58.432Z,35.2
2019-01-24T05:43:48.426Z,35.2
2019-01-24T05:44:38.442Z,35.1
2019-01-24T05:45:28.533Z,35.1
2019-01-24T05:46:18.306Z,35.2
2019-01-24T05:47:08.654Z,35.1
2019-01-24T05:47:58.423Z,35.1
2019-01-24T05:48:48.166Z,35.1
2019-01-24T05:49:38.504Z,35.1
2019-01-24T05:50:30.129Z,35.1
2019-01-24T05:51:18.613Z,35.1
2019-01-24T05:52:08.985Z,35.1
2019-01-24T05:52:58.486Z,35.1
2019-01-24T05:53:49.125Z,35.1
2019-01-24T05:54:38.601Z,35.1
2019-01-24T05:55:28.637Z,35.1
2019-01-24T05:56:18.683Z,35.1
2019-01-24T05:57:09.045Z,35.1
2019-01-24T05:57:59.388Z,35.1
2019-01-24T05:58:49.149Z,35.1
2019-01-24T05:59:39.198Z,35.1
2019-01-24T06:00:28.710Z,35.1
2019-01-24T06:01:19.305Z,35.1
2019-01-24T06:02:09.655Z,35.1
2019-01-24T06:02:59.417Z,35.1
2019-01-24T06:03:49.475Z,35.1
2019-01-24T06:04:39.833Z,35.1
2019-01-24T06:06:37.560Z,35.1
2019-01-24T06:07:28.840Z,35.1
2019-01-24T06:08:17.153Z,35.1
2019-01-24T06:09:07.734Z,35.1
2019-01-24T06:09:57.780Z,35.1
2019-01-24T06:10:47.590Z,35.1
2019-01-24T06:11:37.364Z,35.1
2019-01-24T06:12:27.960Z,35.1
2019-01-24T06:13:17.509Z,35.1
2019-01-24T06:14:07.779Z,35.1
2019-01-24T06:14:57.619Z,35
2019-01-24T06:15:47.632Z,35
2019-01-24T06:16:37.709Z,35
2019-01-24T06:17:28.012Z,35
2019-01-24T06:18:18.089Z,35
2019-01-24T06:19:08.170Z,35
2019-01-24T06:19:57.954Z,35
2019-01-24T06:20:48.003Z,35
2019-01-24T06:21:38.594Z,35
2019-01-24T06:22:28.666Z,35
2019-01-24T06:23:18.312Z,35
2019-01-24T06:24:08.482Z,35
2019-01-24T06:24:58.529Z,35
2019-01-24T06:25:48.348Z,35
2019-01-24T06:26:38.926Z,35
2019-01-24T06:27:28.983Z,35
2019-01-24T06:28:18.799Z,35
2019-01-24T06:29:08.833Z,35
2019-01-24T06:29:59.161Z,34.9
2019-01-24T06:30:48.648Z,34.9
2019-01-24T06:31:38.706Z,34.9
2019-01-24T06:32:29.350Z,34.9
2019-01-24T06:33:19.111Z,34.9
2019-01-24T06:34:09.480Z,34.9
2019-01-24T06:34:58.963Z,34.9
2019-01-24T06:35:54.833Z,34.9
2019-01-24T06:36:39.635Z,34.9
2019-01-24T06:37:29.144Z,34.9
2019-01-24T06:38:19.425Z,34.9
2019-01-24T06:39:09.492Z,34.9
2019-01-24T06:39:59.590Z,34.9
2019-01-24T06:40:49.334Z,34.9
2019-01-24T06:41:38.858Z,34.9
2019-01-24T06:42:29.458Z,34.9
2019-01-24T06:43:19.520Z,34.9
2019-01-24T06:44:09.835Z,34.9
2019-01-24T06:45:00.226Z,34.9
2019-01-24T06:45:49.960Z,34.9
2019-01-24T06:46:39.772Z,34.9
2019-01-24T06:47:30.092Z,34.9
2019-01-24T06:48:19.880Z,34.9
2019-01-24T06:49:10.500Z,34.9
2019-01-24T06:50:00.295Z,34.9
2019-01-24T06:50:50.584Z,34.9
2019-01-24T06:51:40.357Z,34.9
2019-01-24T06:52:30.680Z,34.9
2019-01-24T06:53:19.907Z,34.8
2019-01-24T06:54:10.504Z,34.8
2019-01-24T06:55:00.842Z,34.8
2019-01-24T06:55:50.647Z,34.9
2019-01-24T06:56:40.221Z,34.8
2019-01-24T06:57:30.802Z,34.8
2019-01-24T06:58:20.817Z,34.8
2019-01-24T06:59:10.597Z,34.8
2019-01-24T07:00:00.396Z,34.8
2019-01-24T07:00:50.995Z,34.8
2019-01-24T07:01:41.049Z,34.8
2019-01-24T07:02:30.249Z,34.8
2019-01-24T07:03:21.227Z,34.8
2019-01-24T07:04:11.209Z,34.8
2019-01-24T07:06:37.190Z,34.8
2019-01-24T07:07:26.398Z,34.8
2019-01-24T07:08:17.296Z,34.8
2019-01-24T07:09:07.356Z,34.8
2019-01-24T07:09:57.418Z,34.8
2019-01-24T07:10:47.475Z,34.8
2019-01-24T07:11:37.017Z,34.8
2019-01-24T07:12:27.868Z,34.8
2019-01-24T07:13:17.371Z,34.8
2019-01-24T07:14:07.418Z,34.8
2019-01-24T07:14:57.758Z,34.8
2019-01-24T07:15:47.821Z,34.8
2019-01-24T07:16:37.642Z,34.8
2019-01-24T07:17:27.425Z,34.8
2019-01-24T07:18:18.248Z,34.8
2019-01-24T07:19:07.215Z,34.8
2019-01-24T07:19:57.895Z,34.8
2019-01-24T07:20:47.886Z,34.7
2019-01-24T07:21:38.203Z,34.7
2019-01-24T07:22:28.260Z,34.7
2019-01-24T07:23:18.313Z,34.7
2019-01-24T07:24:07.608Z,34.7
2019-01-24T07:24:58.730Z,34.7
2019-01-24T07:25:48.230Z,34.7
2019-01-24T07:26:38.547Z,34.7
2019-01-24T07:27:28.052Z,34.7
2019-01-24T07:28:18.145Z,34.7
2019-01-24T07:29:08.175Z,34.7
2019-01-24T07:29:58.782Z,34.7
2019-01-24T07:30:48.340Z,34.7
2019-01-24T07:31:38.932Z,34.7
2019-01-24T07:32:28.677Z,34.7
2019-01-24T07:33:18.750Z,34.7
2019-01-24T07:34:09.064Z,34.7
2019-01-24T07:34:58.294Z,34.6
2019-01-24T07:35:48.644Z,34.6
2019-01-24T07:36:39.250Z,34.6
2019-01-24T07:37:29.634Z,34.6
2019-01-24T07:38:19.079Z,34.6
2019-01-24T07:39:09.688Z,34.6
2019-01-24T07:39:59.454Z,34.6
2019-01-24T07:40:49.294Z,34.6
2019-01-24T07:41:39.027Z,34.6
2019-01-24T07:42:28.264Z,34.6
2019-01-24T07:43:20.777Z,34.6
2019-01-24T07:44:09.777Z,34.6
2019-01-24T07:44:59.544Z,34.6
2019-01-24T07:45:49.606Z,34.6
2019-01-24T07:46:39.661Z,34.6
2019-01-24T07:47:29.149Z,34.6
2019-01-24T07:48:20.051Z,34.6
2019-01-24T07:49:09.556Z,34.6
2019-01-24T07:49:59.614Z,34.6
2019-01-24T07:50:50.501Z,34.6
2019-01-24T07:51:39.981Z,34.6
2019-01-24T07:52:30.611Z,34.6
2019-01-24T07:53:20.123Z,34.6
2019-01-24T07:54:09.608Z,34.6
2019-01-24T07:55:00.803Z,34.6
2019-01-24T07:55:50.558Z,34.6
2019-01-24T07:56:40.366Z,34.6
2019-01-24T07:57:30.135Z,34.6
2019-01-24T07:58:20.558Z,34.6
2019-01-24T07:59:10.518Z,34.5
2019-01-24T08:00:01.211Z,34.6
2019-01-24T08:00:50.350Z,34.6
2019-01-24T08:01:40.953Z,34.5
2019-01-24T08:02:30.458Z,34.5
2019-01-24T08:03:20.533Z,34.5
2019-01-24T08:04:11.178Z,34.5
2019-01-24T08:05:01.200Z,34.5
2019-01-24T08:05:51.255Z,34.5
2019-01-24T08:06:40.748Z,34.5
2019-01-24T08:07:31.103Z,34.5
2019-01-24T08:08:20.318Z,34.5
2019-01-24T08:09:11.789Z,34.5
2019-01-24T08:10:01.630Z,34.5
2019-01-24T08:10:51.317Z,34.4
2019-01-24T08:11:40.817Z,34.5
2019-01-24T08:12:31.427Z,34.5
2019-01-24T08:13:21.209Z,34.5
2019-01-24T08:14:12.087Z,34.4
2019-01-24T08:15:01.059Z,34.4
2019-01-24T08:15:51.392Z,34.4
2019-01-24T08:16:42.319Z,34.4
2019-01-24T08:17:31.204Z,34.4
2019-01-24T08:18:21.847Z,34.4
2019-01-24T08:19:11.902Z,34.4
2019-01-24T08:20:01.690Z,34.4
2019-01-24T08:20:52.024Z,34.4
2019-01-24T08:21:42.322Z,34.4
2019-01-24T08:22:32.421Z,34.4
2019-01-24T08:23:22.760Z,34.4
2019-01-24T08:24:12.510Z,34.4
2019-01-24T08:25:02.374Z,34.4
2019-01-24T08:25:52.611Z,34.4
2019-01-24T08:26:42.962Z,34.4
2019-01-24T08:27:34.467Z,34.4
2019-01-24T08:28:22.836Z,34.4
2019-01-24T08:29:12.089Z,34.4
2019-01-24T08:30:02.376Z,34.4
2019-01-24T08:30:52.689Z,34.4
2019-01-24T08:31:42.744Z,34.4
2019-01-24T08:32:32.813Z,34.4
2019-01-24T08:33:22.358Z,34.4
2019-01-24T08:34:12.921Z,34.4
2019-01-24T08:35:03.262Z,34.4
2019-01-24T08:35:53.041Z,34.4
2019-01-24T08:36:43.090Z,34.4
2019-01-24T08:37:33.153Z,34.4
2019-01-24T08:38:22.652Z,34.3
2019-01-24T08:39:13.535Z,34.3
2019-01-24T08:40:03.238Z,34.3
2019-01-24T08:40:52.823Z,34.3
2019-01-24T08:41:43.726Z,34.3
2019-01-24T08:42:33.507Z,34.3
2019-01-24T08:43:23.548Z,34.3
2019-01-24T08:44:13.663Z,34.3
2019-01-24T08:45:03.695Z,34.3
2019-01-24T08:45:53.442Z,34.3
2019-01-24T08:46:43.795Z,34.3
2019-01-24T08:47:33.835Z,34.3
2019-01-24T08:48:24.175Z,34.3
2019-01-24T08:49:14.228Z,34.3
2019-01-24T08:50:04.030Z,34.3
2019-01-24T08:50:54.340Z,34.3
2019-01-24T08:51:44.437Z,34.3
2019-01-24T08:52:34.513Z,34.3
2019-01-24T08:53:24.308Z,34.3
2019-01-24T08:54:14.618Z,34.3
2019-01-24T08:55:03.913Z,34.3
2019-01-24T08:55:54.695Z,34.3
2019-01-24T08:56:44.742Z,34.3
2019-01-24T08:57:34.534Z,34.3
2019-01-24T08:58:24.602Z,34.3
2019-01-24T08:59:14.622Z,34.3
2019-01-24T09:00:04.870Z,34.3
2019-01-24T09:00:54.784Z,34.3
2019-01-24T09:01:45.092Z,34.3
2019-01-24T09:02:34.884Z,34.2
2019-01-24T09:03:25.189Z,34.2
2019-01-24T09:04:15.536Z,34.2
2019-01-24T09:05:05.319Z,34.2
2019-01-24T09:05:55.369Z,34.2
2019-01-24T09:06:44.938Z,34.2
2019-01-24T09:07:35.521Z,34.2
2019-01-24T09:08:25.263Z,34.2
2019-01-24T09:09:15.597Z,34.2
2019-01-24T09:10:05.788Z,34.2
2019-01-24T09:10:55.166Z,34.2
2019-01-24T09:11:45.767Z,34.2
2019-01-24T09:12:36.510Z,34.2
2019-01-24T09:13:25.339Z,34.2
2019-01-24T09:14:15.938Z,34.2
2019-01-24T09:15:05.946Z,34.2
2019-01-24T09:15:55.478Z,34.2
2019-01-24T09:16:45.548Z,34.1
2019-01-24T09:17:36.458Z,34.1
2019-01-24T09:18:26.531Z,34.2
2019-01-24T09:19:16.293Z,34.1
2019-01-24T09:20:06.171Z,34.1
2019-01-24T09:20:57.165Z,34.1
2019-01-24T09:21:46.740Z,34.1
2019-01-24T09:22:36.565Z,34.1
2019-01-24T09:23:26.880Z,34.1
2019-01-24T09:24:16.636Z,34.1
2019-01-24T09:25:07.005Z,34.1
2019-01-24T09:25:55.937Z,34.1
2019-01-24T09:26:46.682Z,34.1
2019-01-24T09:27:37.065Z,34.1
2019-01-24T09:28:26.615Z,34.1
2019-01-24T09:29:16.975Z,34.1
2019-01-24T09:30:06.297Z,34.1
2019-01-24T09:30:56.545Z,34.1
2019-01-24T09:31:46.634Z,34.1
2019-01-24T09:32:36.943Z,34.1
2019-01-24T09:33:27.020Z,34.1
2019-01-24T09:34:16.749Z,34.1
2019-01-24T09:35:07.419Z,34.1
2019-01-24T09:35:56.873Z,34.1
2019-01-24T09:36:47.524Z,34.1
2019-01-24T09:37:36.439Z,34.1
2019-01-24T09:38:27.877Z,34.1
2019-01-24T09:39:17.391Z,34.1
2019-01-24T09:40:07.720Z,34.1
2019-01-24T09:40:56.934Z,34.1
2019-01-24T09:41:47.872Z,34.1
2019-01-24T09:42:37.344Z,34.1
2019-01-24T09:43:27.180Z,34.1
2019-01-24T09:44:17.716Z,34
2019-01-24T09:45:07.238Z,34
2019-01-24T09:45:57.889Z,34
2019-01-24T09:46:48.178Z,34
2019-01-24T09:47:38.521Z,34
2019-01-24T09:48:27.539Z,34
2019-01-24T09:49:17.786Z,34
2019-01-24T09:50:08.399Z,34
2019-01-24T09:50:58.468Z,34
2019-01-24T09:51:48.028Z,34
2019-01-24T09:52:38.310Z,34
2019-01-24T09:53:28.903Z,34
2019-01-24T09:54:18.146Z,34
2019-01-24T09:55:09.389Z,33.9
2019-01-24T09:55:58.803Z,34
2019-01-24T09:56:48.869Z,34
2019-01-24T09:57:38.090Z,33.9
2019-01-24T09:58:28.981Z,33.9
2019-01-24T09:59:19.313Z,33.9
2019-01-24T10:00:09.101Z,33.9
2019-01-24T10:00:58.953Z,33.9
2019-01-24T10:01:48.934Z,33.9
2019-01-24T10:02:39.267Z,33.9
2019-01-24T10:03:29.333Z,33.9
2019-01-24T10:04:18.920Z,33.9
2019-01-24T10:05:09.722Z,33.9
2019-01-24T10:07:35.941Z,33.9
2019-01-24T10:08:26.639Z,33.9
2019-01-24T10:09:16.862Z,33.9
2019-01-24T10:10:06.219Z,33.9
2019-01-24T10:10:56.562Z,33.9
2019-01-24T10:11:45.520Z,33.9
2019-01-24T10:12:36.897Z,33.9
2019-01-24T10:13:27.472Z,33.9
2019-01-24T10:14:17.521Z,33.9
2019-01-24T10:15:06.714Z,33.9
2019-01-24T10:15:56.787Z,33.9
2019-01-24T10:16:47.445Z,33.9
2019-01-24T10:17:38.549Z,33.9
2019-01-24T10:18:27.569Z,33.9
2019-01-24T10:19:17.307Z,33.9
2019-01-24T10:20:07.897Z,33.9
2019-01-24T10:20:57.122Z,33.8
2019-01-24T10:21:47.534Z,33.8
2019-01-24T10:22:38.146Z,33.8
2019-01-24T10:23:27.336Z,33.8
2019-01-24T10:24:17.424Z,33.8
2019-01-24T10:25:07.589Z,33.8
2019-01-24T10:25:57.536Z,33.8
2019-01-24T10:26:47.911Z,33.8
2019-01-24T10:27:37.338Z,33.8
2019-01-24T10:28:28.726Z,33.8
2019-01-24T10:29:16.909Z,33.8
2019-01-24T10:30:07.816Z,33.8
2019-01-24T10:30:57.921Z,33.8
2019-01-24T10:31:49.872Z,33.8
2019-01-24T10:32:37.436Z,33.8
2019-01-24T10:33:28.039Z,33.8
2019-01-24T10:34:18.111Z,33.8
2019-01-24T10:35:07.640Z,33.8
2019-01-24T10:35:57.938Z,33.8
2019-01-24T10:36:48.246Z,33.8
2019-01-24T10:37:38.065Z,33.8
2019-01-24T10:38:28.650Z,33.8
2019-01-24T10:39:18.509Z,33.8
2019-01-24T10:40:08.087Z,33.8
2019-01-24T10:40:58.580Z,33.8
2019-01-24T10:41:48.698Z,33.8
2019-01-24T10:42:39.277Z,33.8
2019-01-24T10:43:28.728Z,33.8
2019-01-24T10:44:19.054Z,33.7
2019-01-24T10:45:09.115Z,33.8
2019-01-24T10:45:58.333Z,33.7
2019-01-24T10:46:48.985Z,33.7
2019-01-24T10:47:39.287Z,33.8
2019-01-24T10:48:29.345Z,33.7
2019-01-24T10:49:19.132Z,33.8
2019-01-24T10:50:08.922Z,33.7
2019-01-24T10:50:59.544Z,33.7
2019-01-24T10:51:49.034Z,33.7
2019-01-24T10:52:39.382Z,33.7
2019-01-24T10:53:29.699Z,33.7
2019-01-24T10:54:19.762Z,33.7
2019-01-24T10:55:16.458Z,33.7
2019-01-24T10:55:59.879Z,33.7
2019-01-24T10:56:49.382Z,33.7
2019-01-24T10:57:40.274Z,33.7
2019-01-24T10:58:30.112Z,33.7
2019-01-24T10:59:20.140Z,33.7
2019-01-24T11:00:09.899Z,33.6
2019-01-24T11:00:59.412Z,33.6
2019-01-24T11:01:50.271Z,33.6
2019-01-24T11:02:40.609Z,33.6
2019-01-24T11:03:30.316Z,33.6
2019-01-24T11:04:20.459Z,33.6
2019-01-24T11:05:10.442Z,33.6
2019-01-24T11:06:00.303Z,33.6
2019-01-24T11:06:54.989Z,33.6
2019-01-24T11:07:41.149Z,33.6
2019-01-24T11:08:30.656Z,33.6
2019-01-24T11:09:21.058Z,33.6
2019-01-24T11:10:12.383Z,33.6
2019-01-24T11:11:00.933Z,33.6
2019-01-24T11:11:51.721Z,33.6
2019-01-24T11:12:40.934Z,33.6
2019-01-24T11:13:30.588Z,33.6
2019-01-24T11:14:21.090Z,33.6
2019-01-24T11:15:10.633Z,33.6
2019-01-24T11:16:01.729Z,33.6
2019-01-24T11:16:51.035Z,33.6